sensor_id;sensor_type;location;lat;lon;timestamp;P1;durP1;ratioP1;P2;durP2;ratioP2
11269;SDS011;5692;48.956;9.200;2023-10-19T00:00:53;306.38;;;291.73;;
11269;SDS011;5692;48.956;9.200;2023-10-19T00:03:21;312.65;;;297.70;;
11269;SDS011;5692;48.956;9.200;2023-10-19T00:05:48;299.95;;;285.65;;
11269;SDS011;5692;48.956;9.200;2023-10-19T00:08:15;308.90;;;294.15;;
11269;SDS011;5692;48.956;9.200;2023-10-19T00:10:45;296.20;;;282.05;;
11269;SDS011;5692;48.956;9.200;2023-10-19T00:13:19;311.77;;;296.90;;
11269;SDS011;5692;48.956;9.200;2023-10-19T00:15:45;303.35;;;288.85;;
11269;SDS011;5692;48.956;9.200;2023-10-19T00:18:18;302.95;;;288.45;;
11269;SDS011;5692;48.956;9.200;2023-10-19T00:20:48;302.88;;;288.38;;
11269;SDS011;5692;48.956;9.200;2023-10-19T00:23:20;300.17;;;285.83;;
11269;SDS011;5692;48.956;9.200;2023-10-19T00:26:00;302.50;;;288.05;;
11269;SDS011;5692;48.956;9.200;2023-10-19T00:28:33;280.50;;;267.10;;
11269;SDS011;5692;48.956;9.200;2023-10-19T00:31:04;303.15;;;288.67;;
11269;SDS011;5692;48.956;9.200;2023-10-19T00:33:33;291.90;;;277.95;;
11269;SDS011;5692;48.956;9.200;2023-10-19T00:36:08;313.38;;;298.38;;
11269;SDS011;5692;48.956;9.200;2023-10-19T00:38:38;299.10;;;284.80;;
11269;SDS011;5692;48.956;9.200;2023-10-19T00:41:08;317.83;;;302.65;;
11269;SDS011;5692;48.956;9.200;2023-10-19T00:43:41;304.35;;;289.80;;
11269;SDS011;5692;48.956;9.200;2023-10-19T00:46:14;298.70;;;284.42;;
11269;SDS011;5692;48.956;9.200;2023-10-19T00:48:41;309.88;;;295.08;;
11269;SDS011;5692;48.956;9.200;2023-10-19T00:51:09;303.90;;;289.38;;
11269;SDS011;5692;48.956;9.200;2023-10-19T00:53:39;302.38;;;287.92;;
11269;SDS011;5692;48.956;9.200;2023-10-19T00:56:06;313.17;;;298.20;;
11269;SDS011;5692;48.956;9.200;2023-10-19T00:58:37;319.85;;;304.58;;
11269;SDS011;5692;48.956;9.200;2023-10-19T01:01:06;309.38;;;294.58;;
11269;SDS011;5692;48.956;9.200;2023-10-19T01:03:32;307.95;;;293.25;;
11269;SDS011;5692;48.956;9.200;2023-10-19T01:06:02;306.30;;;291.67;;
11269;SDS011;5692;48.956;9.200;2023-10-19T01:08:34;332.35;;;316.48;;
11269;SDS011;5692;48.956;9.200;2023-10-19T01:11:06;296.13;;;281.98;;
11269;SDS011;5692;48.956;9.200;2023-10-19T01:13:35;290.70;;;276.80;;
11269;SDS011;5692;48.956;9.200;2023-10-19T01:16:02;307.90;;;293.20;;
11269;SDS011;5692;48.956;9.200;2023-10-19T01:18:29;306.08;;;291.48;;
11269;SDS011;5692;48.956;9.200;2023-10-19T01:20:58;287.60;;;273.85;;
11269;SDS011;5692;48.956;9.200;2023-10-19T01:23:29;303.92;;;289.40;;
11269;SDS011;5692;48.956;9.200;2023-10-19T01:25:58;288.67;;;274.88;;
11269;SDS011;5692;48.956;9.200;2023-10-19T01:30:56;297.77;;;283.55;;
11269;SDS011;5692;48.956;9.200;2023-10-19T01:33:24;307.90;;;293.17;;
11269;SDS011;5692;48.956;9.200;2023-10-19T01:35:50;289.55;;;275.73;;
11269;SDS011;5692;48.956;9.200;2023-10-19T01:38:34;289.80;;;275.95;;
11269;SDS011;5692;48.956;9.200;2023-10-19T01:41:01;314.05;;;299.05;;
11269;SDS011;5692;48.956;9.200;2023-10-19T01:43:31;309.13;;;294.35;;
11269;SDS011;5692;48.956;9.200;2023-10-19T01:45:58;291.10;;;277.20;;
11269;SDS011;5692;48.956;9.200;2023-10-19T01:48:29;295.83;;;281.70;;
11269;SDS011;5692;48.956;9.200;2023-10-19T01:51:02;271.85;;;258.85;;
11269;SDS011;5692;48.956;9.200;2023-10-19T01:53:31;290.77;;;276.88;;
11269;SDS011;5692;48.956;9.200;2023-10-19T01:55:58;255.15;;;242.95;;
11269;SDS011;5692;48.956;9.200;2023-10-19T01:58:27;275.85;;;262.67;;
11269;SDS011;5692;48.956;9.200;2023-10-19T02:00:53;268.13;;;255.32;;
11269;SDS011;5692;48.956;9.200;2023-10-19T02:03:24;290.17;;;276.27;;
11269;SDS011;5692;48.956;9.200;2023-10-19T02:05:59;292.05;;;278.10;;
11269;SDS011;5692;48.956;9.200;2023-10-19T02:08:26;281.27;;;267.83;;
11269;SDS011;5692;48.956;9.200;2023-10-19T02:10:52;295.40;;;281.27;;
11269;SDS011;5692;48.956;9.200;2023-10-19T02:13:21;295.13;;;281.02;;
11269;SDS011;5692;48.956;9.200;2023-10-19T02:15:48;296.98;;;282.77;;
11269;SDS011;5692;48.956;9.200;2023-10-19T02:18:16;300.33;;;285.98;;
11269;SDS011;5692;48.956;9.200;2023-10-19T02:20:45;297.67;;;283.45;;
11269;SDS011;5692;48.956;9.200;2023-10-19T02:23:13;285.63;;;271.98;;
11269;SDS011;5692;48.956;9.200;2023-10-19T02:25:40;300.65;;;286.25;;
11269;SDS011;5692;48.956;9.200;2023-10-19T02:28:07;296.83;;;282.65;;
11269;SDS011;5692;48.956;9.200;2023-10-19T02:30:34;286.75;;;273.05;;
11269;SDS011;5692;48.956;9.200;2023-10-19T02:33:00;273.17;;;260.10;;
11269;SDS011;5692;48.956;9.200;2023-10-19T02:35:28;265.48;;;252.77;;
11269;SDS011;5692;48.956;9.200;2023-10-19T02:37:55;299.10;;;284.83;;
11269;SDS011;5692;48.956;9.200;2023-10-19T02:40:21;299.17;;;284.90;;
11269;SDS011;5692;48.956;9.200;2023-10-19T02:42:49;273.02;;;259.98;;
11269;SDS011;5692;48.956;9.200;2023-10-19T02:45:16;294.45;;;280.38;;
11269;SDS011;5692;48.956;9.200;2023-10-19T02:47:43;308.45;;;293.73;;
11269;SDS011;5692;48.956;9.200;2023-10-19T02:50:10;289.58;;;275.73;;
11269;SDS011;5692;48.956;9.200;2023-10-19T02:52:41;280.42;;;267.02;;
11269;SDS011;5692;48.956;9.200;2023-10-19T02:55:08;282.05;;;268.55;;
11269;SDS011;5692;48.956;9.200;2023-10-19T02:57:35;307.40;;;292.70;;
11269;SDS011;5692;48.956;9.200;2023-10-19T03:00:04;314.77;;;299.75;;
11269;SDS011;5692;48.956;9.200;2023-10-19T03:02:35;302.33;;;287.88;;
11269;SDS011;5692;48.956;9.200;2023-10-19T03:05:01;292.70;;;278.73;;
11269;SDS011;5692;48.956;9.200;2023-10-19T03:07:34;305.25;;;290.65;;
11269;SDS011;5692;48.956;9.200;2023-10-19T03:10:00;300.60;;;286.20;;
11269;SDS011;5692;48.956;9.200;2023-10-19T03:12:27;304.23;;;289.70;;
11269;SDS011;5692;48.956;9.200;2023-10-19T03:14:53;314.65;;;299.60;;
11269;SDS011;5692;48.956;9.200;2023-10-19T03:17:19;288.13;;;274.33;;
11269;SDS011;5692;48.956;9.200;2023-10-19T03:27:30;298.63;;;284.35;;
11269;SDS011;5692;48.956;9.200;2023-10-19T03:29:56;295.55;;;281.42;;
11269;SDS011;5692;48.956;9.200;2023-10-19T03:32:25;288.17;;;274.38;;
11269;SDS011;5692;48.956;9.200;2023-10-19T03:34:54;320.20;;;304.90;;
11269;SDS011;5692;48.956;9.200;2023-10-19T03:37:24;307.45;;;292.75;;
11269;SDS011;5692;48.956;9.200;2023-10-19T03:39:50;286.80;;;273.10;;
11269;SDS011;5692;48.956;9.200;2023-10-19T03:42:23;313.60;;;298.63;;
11269;SDS011;5692;48.956;9.200;2023-10-19T03:45:11;294.33;;;280.25;;
11269;SDS011;5692;48.956;9.200;2023-10-19T03:47:40;268.58;;;255.75;;
11269;SDS011;5692;48.956;9.200;2023-10-19T03:50:09;298.67;;;284.40;;
11269;SDS011;5692;48.956;9.200;2023-10-19T03:52:46;288.35;;;274.58;;
11269;SDS011;5692;48.956;9.200;2023-10-19T03:55:12;273.58;;;260.48;;
11269;SDS011;5692;48.956;9.200;2023-10-19T03:57:43;291.60;;;277.67;;
11269;SDS011;5692;48.956;9.200;2023-10-19T04:00:15;290.63;;;276.73;;
11269;SDS011;5692;48.956;9.200;2023-10-19T04:02:43;283.52;;;269.98;;
11269;SDS011;5692;48.956;9.200;2023-10-19T04:05:10;291.20;;;277.30;;
11269;SDS011;5692;48.956;9.200;2023-10-19T04:07:40;289.13;;;275.30;;
11269;SDS011;5692;48.956;9.200;2023-10-19T04:10:07;291.05;;;277.15;;
11269;SDS011;5692;48.956;9.200;2023-10-19T04:12:34;307.35;;;292.65;;
11269;SDS011;5692;48.956;9.200;2023-10-19T04:15:04;283.27;;;269.75;;
11269;SDS011;5692;48.956;9.200;2023-10-19T04:17:41;308.98;;;294.23;;
11269;SDS011;5692;48.956;9.200;2023-10-19T04:20:08;287.63;;;273.88;;
11269;SDS011;5692;48.956;9.200;2023-10-19T04:22:55;301.60;;;287.20;;
11269;SDS011;5692;48.956;9.200;2023-10-19T04:25:31;296.15;;;282.00;;
11269;SDS011;5692;48.956;9.200;2023-10-19T04:27:57;301.02;;;286.63;;
11269;SDS011;5692;48.956;9.200;2023-10-19T04:30:23;290.23;;;276.33;;
11269;SDS011;5692;48.956;9.200;2023-10-19T04:32:49;303.77;;;289.25;;
11269;SDS011;5692;48.956;9.200;2023-10-19T04:35:16;306.13;;;291.48;;
11269;SDS011;5692;48.956;9.200;2023-10-19T04:37:55;303.13;;;288.63;;
11269;SDS011;5692;48.956;9.200;2023-10-19T04:40:22;296.13;;;281.98;;
11269;SDS011;5692;48.956;9.200;2023-10-19T04:42:51;293.92;;;279.88;;
11269;SDS011;5692;48.956;9.200;2023-10-19T04:45:17;307.02;;;292.35;;
11269;SDS011;5692;48.956;9.200;2023-10-19T04:47:43;329.45;;;313.70;;
11269;SDS011;5692;48.956;9.200;2023-10-19T04:50:10;298.85;;;284.58;;
11269;SDS011;5692;48.956;9.200;2023-10-19T04:52:36;322.85;;;307.42;;
11269;SDS011;5692;48.956;9.200;2023-10-19T04:55:03;307.85;;;293.13;;
11269;SDS011;5692;48.956;9.200;2023-10-19T04:57:29;305.23;;;290.63;;
11269;SDS011;5692;48.956;9.200;2023-10-19T04:59:57;313.40;;;298.42;;
11269;SDS011;5692;48.956;9.200;2023-10-19T05:02:23;317.05;;;301.92;;
11269;SDS011;5692;48.956;9.200;2023-10-19T05:04:49;303.27;;;288.77;;
11269;SDS011;5692;48.956;9.200;2023-10-19T05:07:15;320.45;;;305.15;;
11269;SDS011;5692;48.956;9.200;2023-10-19T05:09:42;316.70;;;301.58;;
11269;SDS011;5692;48.956;9.200;2023-10-19T05:12:08;324.85;;;309.35;;
11269;SDS011;5692;48.956;9.200;2023-10-19T05:14:38;292.58;;;278.60;;
11269;SDS011;5692;48.956;9.200;2023-10-19T05:17:04;318.55;;;303.30;;
11269;SDS011;5692;48.956;9.200;2023-10-19T05:19:33;308.20;;;293.50;;
11269;SDS011;5692;48.956;9.200;2023-10-19T05:22:00;294.00;;;279.95;;
11269;SDS011;5692;48.956;9.200;2023-10-19T05:24:27;308.67;;;293.92;;
11269;SDS011;5692;48.956;9.200;2023-10-19T05:26:53;325.90;;;310.35;;
11269;SDS011;5692;48.956;9.200;2023-10-19T05:29:19;297.30;;;283.10;;
11269;SDS011;5692;48.956;9.200;2023-10-19T05:31:49;324.20;;;308.73;;
11269;SDS011;5692;48.956;9.200;2023-10-19T05:34:19;323.83;;;308.35;;
11269;SDS011;5692;48.956;9.200;2023-10-19T05:36:45;303.25;;;288.75;;
11269;SDS011;5692;48.956;9.200;2023-10-19T05:39:14;308.95;;;294.20;;
11269;SDS011;5692;48.956;9.200;2023-10-19T05:41:43;304.58;;;290.00;;
11269;SDS011;5692;48.956;9.200;2023-10-19T05:44:18;282.73;;;269.20;;
11269;SDS011;5692;48.956;9.200;2023-10-19T05:46:44;289.95;;;276.05;;
11269;SDS011;5692;48.956;9.200;2023-10-19T05:49:11;297.65;;;283.42;;
11269;SDS011;5692;48.956;9.200;2023-10-19T05:51:47;298.85;;;284.55;;
11269;SDS011;5692;48.956;9.200;2023-10-19T05:54:13;289.38;;;275.55;;
11269;SDS011;5692;48.956;9.200;2023-10-19T05:56:42;288.92;;;275.13;;
11269;SDS011;5692;48.956;9.200;2023-10-19T05:59:09;304.35;;;289.80;;
11269;SDS011;5692;48.956;9.200;2023-10-19T06:01:35;289.90;;;276.05;;
11269;SDS011;5692;48.956;9.200;2023-10-19T06:04:02;288.73;;;274.92;;
11269;SDS011;5692;48.956;9.200;2023-10-19T06:06:31;296.33;;;282.17;;
11269;SDS011;5692;48.956;9.200;2023-10-19T06:08:57;278.95;;;265.60;;
11269;SDS011;5692;48.956;9.200;2023-10-19T06:11:28;294.65;;;280.55;;
11269;SDS011;5692;48.956;9.200;2023-10-19T06:13:57;296.33;;;282.15;;
11269;SDS011;5692;48.956;9.200;2023-10-19T06:16:30;304.55;;;290.00;;
11269;SDS011;5692;48.956;9.200;2023-10-19T06:18:56;307.42;;;292.73;;
11269;SDS011;5692;48.956;9.200;2023-10-19T06:21:31;303.75;;;289.25;;
11269;SDS011;5692;48.956;9.200;2023-10-19T06:24:01;281.95;;;268.45;;
11269;SDS011;5692;48.956;9.200;2023-10-19T06:26:27;303.95;;;289.42;;
11269;SDS011;5692;48.956;9.200;2023-10-19T06:31:25;307.23;;;292.52;;
11269;SDS011;5692;48.956;9.200;2023-10-19T06:34:03;315.30;;;300.20;;
11269;SDS011;5692;48.956;9.200;2023-10-19T06:36:39;303.10;;;288.60;;
11269;SDS011;5692;48.956;9.200;2023-10-19T06:39:05;292.80;;;278.83;;
11269;SDS011;5692;48.956;9.200;2023-10-19T06:41:40;285.27;;;271.63;;
11269;SDS011;5692;48.956;9.200;2023-10-19T06:44:09;290.77;;;276.88;;
11269;SDS011;5692;48.956;9.200;2023-10-19T06:46:51;280.13;;;266.73;;
11269;SDS011;5692;48.956;9.200;2023-10-19T06:49:23;275.50;;;262.30;;
11269;SDS011;5692;48.956;9.200;2023-10-19T06:52:09;294.70;;;280.60;;
11269;SDS011;5692;48.956;9.200;2023-10-19T06:54:45;296.73;;;282.55;;
11269;SDS011;5692;48.956;9.200;2023-10-19T06:57:11;295.88;;;281.75;;
11269;SDS011;5692;48.956;9.200;2023-10-19T07:02:47;281.55;;;268.10;;
11269;SDS011;5692;48.956;9.200;2023-10-19T07:05:25;293.05;;;279.05;;
11269;SDS011;5692;48.956;9.200;2023-10-19T07:08:00;291.75;;;277.85;;
11269;SDS011;5692;48.956;9.200;2023-10-19T07:10:53;277.70;;;264.40;;
11269;SDS011;5692;48.956;9.200;2023-10-19T07:13:22;270.05;;;257.15;;
11269;SDS011;5692;48.956;9.200;2023-10-19T07:16:07;270.85;;;257.90;;
11269;SDS011;5692;48.956;9.200;2023-10-19T07:18:39;278.48;;;265.17;;
11269;SDS011;5692;48.956;9.200;2023-10-19T07:21:11;283.05;;;269.52;;
11269;SDS011;5692;48.956;9.200;2023-10-19T07:23:50;289.63;;;275.80;;
11269;SDS011;5692;48.956;9.200;2023-10-19T07:26:30;267.02;;;254.27;;
11269;SDS011;5692;48.956;9.200;2023-10-19T07:29:18;276.70;;;263.48;;
11269;SDS011;5692;48.956;9.200;2023-10-19T07:31:59;278.38;;;265.08;;
11269;SDS011;5692;48.956;9.200;2023-10-19T07:34:36;263.10;;;250.50;;
11269;SDS011;5692;48.956;9.200;2023-10-19T07:37:16;271.80;;;258.80;;
11269;SDS011;5692;48.956;9.200;2023-10-19T07:42:38;288.42;;;274.63;;
11269;SDS011;5692;48.956;9.200;2023-10-19T07:45:11;254.18;;;242.02;;
11269;SDS011;5692;48.956;9.200;2023-10-19T07:47:55;277.00;;;263.80;;
11269;SDS011;5692;48.956;9.200;2023-10-19T07:50:44;274.17;;;261.08;;
11269;SDS011;5692;48.956;9.200;2023-10-19T07:53:17;258.45;;;246.10;;
11269;SDS011;5692;48.956;9.200;2023-10-19T07:55:50;256.15;;;243.90;;
11269;SDS011;5692;48.956;9.200;2023-10-19T07:58:29;260.83;;;248.35;;
11269;SDS011;5692;48.956;9.200;2023-10-19T08:00:56;259.65;;;247.25;;
11269;SDS011;5692;48.956;9.200;2023-10-19T08:03:31;297.27;;;283.05;;
11269;SDS011;5692;48.956;9.200;2023-10-19T08:05:58;312.15;;;297.23;;
11269;SDS011;5692;48.956;9.200;2023-10-19T08:08:24;298.75;;;284.48;;
11269;SDS011;5692;48.956;9.200;2023-10-19T08:13:41;292.25;;;278.30;;
11269;SDS011;5692;48.956;9.200;2023-10-19T08:16:16;234.07;;;222.88;;
11269;SDS011;5692;48.956;9.200;2023-10-19T08:18:45;236.57;;;225.25;;
11269;SDS011;5692;48.956;9.200;2023-10-19T08:21:14;297.55;;;283.35;;
11269;SDS011;5692;48.956;9.200;2023-10-19T08:23:43;336.48;;;320.40;;
11269;SDS011;5692;48.956;9.200;2023-10-19T08:26:10;294.75;;;280.65;;
11269;SDS011;5692;48.956;9.200;2023-10-19T08:28:36;304.92;;;290.35;;
11269;SDS011;5692;48.956;9.200;2023-10-19T08:31:11;280.98;;;267.58;;
11269;SDS011;5692;48.956;9.200;2023-10-19T08:33:40;280.38;;;266.98;;
11269;SDS011;5692;48.956;9.200;2023-10-19T08:36:17;365.75;;;348.27;;
11269;SDS011;5692;48.956;9.200;2023-10-19T08:39:07;382.02;;;363.80;;
11269;SDS011;5692;48.956;9.200;2023-10-19T08:41:34;346.13;;;329.60;;
11269;SDS011;5692;48.956;9.200;2023-10-19T08:44:11;306.35;;;291.73;;
11269;SDS011;5692;48.956;9.200;2023-10-19T08:46:40;329.65;;;313.90;;
11269;SDS011;5692;48.956;9.200;2023-10-19T08:49:13;313.27;;;298.30;;
11269;SDS011;5692;48.956;9.200;2023-10-19T08:51:44;348.65;;;332.00;;
11269;SDS011;5692;48.956;9.200;2023-10-19T08:54:11;358.42;;;341.30;;
11269;SDS011;5692;48.956;9.200;2023-10-19T08:56:37;336.45;;;320.38;;
11269;SDS011;5692;48.956;9.200;2023-10-19T08:59:14;346.23;;;329.67;;
11269;SDS011;5692;48.956;9.200;2023-10-19T09:01:46;363.38;;;346.02;;
11269;SDS011;5692;48.956;9.200;2023-10-19T09:04:21;364.33;;;346.92;;
11269;SDS011;5692;48.956;9.200;2023-10-19T09:06:47;346.23;;;329.67;;
11269;SDS011;5692;48.956;9.200;2023-10-19T09:09:16;336.65;;;320.58;;
11269;SDS011;5692;48.956;9.200;2023-10-19T09:11:44;314.40;;;299.40;;
11269;SDS011;5692;48.956;9.200;2023-10-19T09:14:18;330.67;;;314.88;;
11269;SDS011;5692;48.956;9.200;2023-10-19T09:16:56;325.75;;;310.17;;
11269;SDS011;5692;48.956;9.200;2023-10-19T09:19:44;365.00;;;347.58;;
11269;SDS011;5692;48.956;9.200;2023-10-19T09:22:25;356.90;;;339.88;;
11269;SDS011;5692;48.956;9.200;2023-10-19T09:24:54;339.75;;;323.52;;
11269;SDS011;5692;48.956;9.200;2023-10-19T09:27:21;344.42;;;327.98;;
11269;SDS011;5692;48.956;9.200;2023-10-19T09:29:53;329.55;;;313.80;;
11269;SDS011;5692;48.956;9.200;2023-10-19T09:32:22;325.95;;;310.38;;
11269;SDS011;5692;48.956;9.200;2023-10-19T09:34:51;307.45;;;292.75;;
11269;SDS011;5692;48.956;9.200;2023-10-19T09:37:18;318.73;;;303.48;;
11269;SDS011;5692;48.956;9.200;2023-10-19T09:39:46;361.67;;;344.40;;
11269;SDS011;5692;48.956;9.200;2023-10-19T09:42:16;360.02;;;342.83;;
11269;SDS011;5692;48.956;9.200;2023-10-19T09:44:43;351.35;;;334.58;;
11269;SDS011;5692;48.956;9.200;2023-10-19T09:47:11;377.60;;;359.60;;
11269;SDS011;5692;48.956;9.200;2023-10-19T09:49:40;387.60;;;369.10;;
11269;SDS011;5692;48.956;9.200;2023-10-19T09:52:11;354.98;;;338.02;;
11269;SDS011;5692;48.956;9.200;2023-10-19T09:57:16;358.48;;;341.35;;
11269;SDS011;5692;48.956;9.200;2023-10-19T09:59:49;277.50;;;264.23;;
11269;SDS011;5692;48.956;9.200;2023-10-19T10:02:23;322.58;;;307.17;;
11269;SDS011;5692;48.956;9.200;2023-10-19T10:04:53;337.65;;;321.50;;
11269;SDS011;5692;48.956;9.200;2023-10-19T10:07:35;300.77;;;286.40;;
11269;SDS011;5692;48.956;9.200;2023-10-19T10:12:53;305.08;;;290.50;;
11269;SDS011;5692;48.956;9.200;2023-10-19T10:15:33;314.23;;;299.20;;
11269;SDS011;5692;48.956;9.200;2023-10-19T10:18:15;286.10;;;272.42;;
11269;SDS011;5692;48.956;9.200;2023-10-19T10:26:26;290.60;;;276.70;;
11269;SDS011;5692;48.956;9.200;2023-10-19T10:29:10;298.00;;;283.75;;
11269;SDS011;5692;48.956;9.200;2023-10-19T10:31:44;308.85;;;294.10;;
11269;SDS011;5692;48.956;9.200;2023-10-19T10:34:11;323.83;;;308.35;;
11269;SDS011;5692;48.956;9.200;2023-10-19T10:39:28;307.05;;;292.38;;
11269;SDS011;5692;48.956;9.200;2023-10-19T10:42:02;288.35;;;274.58;;
11269;SDS011;5692;48.956;9.200;2023-10-19T10:44:54;289.48;;;275.63;;
11269;SDS011;5692;48.956;9.200;2023-10-19T10:47:21;311.10;;;296.25;;
11269;SDS011;5692;48.956;9.200;2023-10-19T10:49:54;319.25;;;304.00;;
11269;SDS011;5692;48.956;9.200;2023-10-19T10:54:50;335.88;;;319.83;;
11269;SDS011;5692;48.956;9.200;2023-10-19T10:57:17;319.23;;;303.98;;
11269;SDS011;5692;48.956;9.200;2023-10-19T10:59:44;314.65;;;299.63;;
11269;SDS011;5692;48.956;9.200;2023-10-19T11:02:20;317.52;;;302.38;;
11269;SDS011;5692;48.956;9.200;2023-10-19T11:04:49;295.77;;;281.63;;
11269;SDS011;5692;48.956;9.200;2023-10-19T11:07:18;316.58;;;301.45;;
11269;SDS011;5692;48.956;9.200;2023-10-19T11:09:48;325.00;;;309.48;;
11269;SDS011;5692;48.956;9.200;2023-10-19T11:12:14;321.63;;;306.27;;
11269;SDS011;5692;48.956;9.200;2023-10-19T11:14:59;291.40;;;277.48;;
11269;SDS011;5692;48.956;9.200;2023-10-19T11:17:31;304.42;;;289.88;;
11269;SDS011;5692;48.956;9.200;2023-10-19T11:19:58;326.30;;;310.70;;
11269;SDS011;5692;48.956;9.200;2023-10-19T11:22:25;323.60;;;308.15;;
11269;SDS011;5692;48.956;9.200;2023-10-19T11:24:54;312.25;;;297.35;;
11269;SDS011;5692;48.956;9.200;2023-10-19T11:29:59;294.70;;;280.60;;
11269;SDS011;5692;48.956;9.200;2023-10-19T11:32:52;306.63;;;291.98;;
11269;SDS011;5692;48.956;9.200;2023-10-19T11:35:21;309.77;;;294.98;;
11269;SDS011;5692;48.956;9.200;2023-10-19T11:40:18;327.67;;;312.00;;
11269;SDS011;5692;48.956;9.200;2023-10-19T11:42:51;323.60;;;308.13;;
11269;SDS011;5692;48.956;9.200;2023-10-19T11:45:17;337.02;;;320.92;;
11269;SDS011;5692;48.956;9.200;2023-10-19T11:47:44;340.27;;;324.02;;
11269;SDS011;5692;48.956;9.200;2023-10-19T11:50:10;332.55;;;316.65;;
11269;SDS011;5692;48.956;9.200;2023-10-19T11:52:41;369.85;;;352.20;;
11269;SDS011;5692;48.956;9.200;2023-10-19T11:55:07;342.67;;;326.27;;
11269;SDS011;5692;48.956;9.200;2023-10-19T11:57:34;342.63;;;326.27;;
11269;SDS011;5692;48.956;9.200;2023-10-19T12:00:02;346.75;;;330.17;;
11269;SDS011;5692;48.956;9.200;2023-10-19T12:02:33;345.80;;;329.27;;
11269;SDS011;5692;48.956;9.200;2023-10-19T12:05:05;355.27;;;338.30;;
11269;SDS011;5692;48.956;9.200;2023-10-19T12:07:35;346.65;;;330.10;;
11269;SDS011;5692;48.956;9.200;2023-10-19T12:10:02;342.63;;;326.25;;
11269;SDS011;5692;48.956;9.200;2023-10-19T12:12:28;365.15;;;347.73;;
11269;SDS011;5692;48.956;9.200;2023-10-19T12:14:54;338.83;;;322.63;;
11269;SDS011;5692;48.956;9.200;2023-10-19T12:17:24;357.80;;;340.70;;
11269;SDS011;5692;48.956;9.200;2023-10-19T12:19:52;337.85;;;321.70;;
11269;SDS011;5692;48.956;9.200;2023-10-19T12:22:19;314.90;;;299.85;;
11269;SDS011;5692;48.956;9.200;2023-10-19T12:24:46;333.08;;;317.17;;
11269;SDS011;5692;48.956;9.200;2023-10-19T12:27:13;331.20;;;315.40;;
11269;SDS011;5692;48.956;9.200;2023-10-19T12:29:39;328.33;;;312.63;;
11269;SDS011;5692;48.956;9.200;2023-10-19T12:32:05;319.52;;;304.25;;
11269;SDS011;5692;48.956;9.200;2023-10-19T12:34:32;316.80;;;301.65;;
11269;SDS011;5692;48.956;9.200;2023-10-19T12:36:58;339.33;;;323.13;;
11269;SDS011;5692;48.956;9.200;2023-10-19T12:39:24;339.52;;;323.33;;
11269;SDS011;5692;48.956;9.200;2023-10-19T12:42:20;295.77;;;281.63;;
11269;SDS011;5692;48.956;9.200;2023-10-19T12:44:48;322.60;;;307.20;;
11269;SDS011;5692;48.956;9.200;2023-10-19T12:47:14;320.33;;;305.02;;
11269;SDS011;5692;48.956;9.200;2023-10-19T12:49:43;306.63;;;291.98;;
11269;SDS011;5692;48.956;9.200;2023-10-19T12:52:13;328.15;;;312.48;;
11269;SDS011;5692;48.956;9.200;2023-10-19T12:54:41;329.13;;;313.40;;
11269;SDS011;5692;48.956;9.200;2023-10-19T12:57:10;360.75;;;343.52;;
11269;SDS011;5692;48.956;9.200;2023-10-19T12:59:37;316.38;;;301.25;;
11269;SDS011;5692;48.956;9.200;2023-10-19T13:02:03;338.70;;;322.52;;
11269;SDS011;5692;48.956;9.200;2023-10-19T13:04:29;357.27;;;340.17;;
11269;SDS011;5692;48.956;9.200;2023-10-19T13:06:59;349.73;;;333.02;;
11269;SDS011;5692;48.956;9.200;2023-10-19T13:09:27;321.67;;;306.33;;
11269;SDS011;5692;48.956;9.200;2023-10-19T13:11:58;322.60;;;307.20;;
11269;SDS011;5692;48.956;9.200;2023-10-19T13:14:24;316.98;;;301.85;;
11269;SDS011;5692;48.956;9.200;2023-10-19T13:16:50;334.35;;;318.38;;
11269;SDS011;5692;48.956;9.200;2023-10-19T13:19:17;310.63;;;295.80;;
11269;SDS011;5692;48.956;9.200;2023-10-19T13:21:46;312.73;;;297.77;;
11269;SDS011;5692;48.956;9.200;2023-10-19T13:24:12;313.08;;;298.13;;
11269;SDS011;5692;48.956;9.200;2023-10-19T13:26:38;309.80;;;294.98;;
11269;SDS011;5692;48.956;9.200;2023-10-19T13:29:10;303.52;;;289.02;;
11269;SDS011;5692;48.956;9.200;2023-10-19T13:31:36;299.20;;;284.90;;
11269;SDS011;5692;48.956;9.200;2023-10-19T13:34:02;324.58;;;309.08;;
11269;SDS011;5692;48.956;9.200;2023-10-19T13:36:29;296.83;;;282.63;;
11269;SDS011;5692;48.956;9.200;2023-10-19T13:38:56;306.05;;;291.45;;
11269;SDS011;5692;48.956;9.200;2023-10-19T13:41:22;295.48;;;281.35;;
11269;SDS011;5692;48.956;9.200;2023-10-19T13:43:48;299.63;;;285.33;;
11269;SDS011;5692;48.956;9.200;2023-10-19T13:46:14;288.58;;;274.77;;
11269;SDS011;5692;48.956;9.200;2023-10-19T13:48:40;294.58;;;280.48;;
11269;SDS011;5692;48.956;9.200;2023-10-19T13:51:06;304.52;;;289.98;;
11269;SDS011;5692;48.956;9.200;2023-10-19T13:53:39;306.17;;;291.55;;
11269;SDS011;5692;48.956;9.200;2023-10-19T13:56:09;288.02;;;274.23;;
11269;SDS011;5692;48.956;9.200;2023-10-19T13:58:36;309.05;;;294.27;;
11269;SDS011;5692;48.956;9.200;2023-10-19T14:01:05;303.20;;;288.70;;
11269;SDS011;5692;48.956;9.200;2023-10-19T14:03:33;319.40;;;304.15;;
11269;SDS011;5692;48.956;9.200;2023-10-19T14:05:59;311.02;;;296.15;;
11269;SDS011;5692;48.956;9.200;2023-10-19T14:08:26;299.48;;;285.17;;
11269;SDS011;5692;48.956;9.200;2023-10-19T14:10:52;294.80;;;280.70;;
11269;SDS011;5692;48.956;9.200;2023-10-19T14:13:20;286.88;;;273.17;;
11269;SDS011;5692;48.956;9.200;2023-10-19T14:15:46;305.65;;;291.05;;
11269;SDS011;5692;48.956;9.200;2023-10-19T14:18:16;294.10;;;280.05;;
11269;SDS011;5692;48.956;9.200;2023-10-19T14:20:42;303.02;;;288.52;;
11269;SDS011;5692;48.956;9.200;2023-10-19T14:23:09;273.77;;;260.67;;
11269;SDS011;5692;48.956;9.200;2023-10-19T14:25:36;290.60;;;276.70;;
11269;SDS011;5692;48.956;9.200;2023-10-19T14:28:07;298.15;;;283.90;;
11269;SDS011;5692;48.956;9.200;2023-10-19T14:30:34;300.38;;;286.02;;
11269;SDS011;5692;48.956;9.200;2023-10-19T14:33:01;304.33;;;289.77;;
11269;SDS011;5692;48.956;9.200;2023-10-19T14:35:35;297.70;;;283.45;;
11269;SDS011;5692;48.956;9.200;2023-10-19T14:38:10;304.52;;;289.98;;
11269;SDS011;5692;48.956;9.200;2023-10-19T14:40:38;313.38;;;298.38;;
11269;SDS011;5692;48.956;9.200;2023-10-19T14:43:09;310.92;;;296.08;;
11269;SDS011;5692;48.956;9.200;2023-10-19T14:45:36;303.02;;;288.55;;
11269;SDS011;5692;48.956;9.200;2023-10-19T14:48:04;317.25;;;302.10;;
11269;SDS011;5692;48.956;9.200;2023-10-19T14:50:33;315.48;;;300.40;;
11269;SDS011;5692;48.956;9.200;2023-10-19T14:53:00;321.70;;;306.33;;
11269;SDS011;5692;48.956;9.200;2023-10-19T14:55:27;302.17;;;287.75;;
11269;SDS011;5692;48.956;9.200;2023-10-19T14:57:54;297.38;;;283.17;;
11269;SDS011;5692;48.956;9.200;2023-10-19T15:00:24;305.90;;;291.30;;
11269;SDS011;5692;48.956;9.200;2023-10-19T15:02:55;304.50;;;289.95;;
11269;SDS011;5692;48.956;9.200;2023-10-19T15:05:25;286.52;;;272.83;;
11269;SDS011;5692;48.956;9.200;2023-10-19T15:07:52;293.50;;;279.48;;